createdAt,value
2022-10-01T00:02:08.957Z,97738.13
2022-10-01T00:04:37.869Z,97729.77
2022-10-01T00:07:11.097Z,97729.55
2022-10-01T00:09:39.217Z,97734.16
2022-10-01T00:12:08.117Z,97731.16
2022-10-01T00:14:39.313Z,97728.59
2022-10-01T00:17:07.630Z,97729.23
2022-10-01T00:19:35.801Z,97726.13
2022-10-01T00:22:03.875Z,97724.94
2022-10-01T00:24:32.150Z,97724.89
2022-10-01T00:27:00.745Z,97730.09
2022-10-01T00:29:29.153Z,97732.18
2022-10-01T00:31:58.160Z,97727.24
2022-10-01T00:34:28.562Z,97726.77
2022-10-01T00:36:56.909Z,97726.60
2022-10-01T00:39:25.083Z,97728.63
2022-10-01T00:41:53.362Z,97728.10
2022-10-01T00:44:36.697Z,97723.71
2022-10-01T00:47:30.397Z,97720.56
2022-10-01T00:50:27.114Z,97719.75
2022-10-01T00:52:59.481Z,97724.09
2022-10-01T00:55:40.157Z,97719.80
2022-10-01T00:58:13.028Z,97714.98
2022-10-01T01:00:43.011Z,97711.23
2022-10-01T01:03:12.462Z,97710.59
2022-10-01T01:05:40.724Z,97702.17
2022-10-01T01:08:10.025Z,97699.55
2022-10-01T01:10:51.614Z,97700.95
2022-10-01T01:13:34.841Z,97697.95
2022-10-01T01:16:13.028Z,97696.02
2022-10-01T01:19:05.084Z,97693.17
2022-10-01T01:21:45.034Z,97695.16
2022-10-01T01:24:19.045Z,97688.61
2022-10-01T01:27:08.010Z,97691.52
2022-10-01T01:29:44.066Z,97699.02
2022-10-01T01:32:18.416Z,97695.59
2022-10-01T01:34:51.273Z,97696.30
2022-10-01T01:37:24.374Z,97698.13
2022-10-01T01:39:56.331Z,97696.94
2022-10-01T01:42:32.079Z,97698.55
2022-10-01T01:45:02.233Z,97703.41
2022-10-01T01:47:33.540Z,97699.40
2022-10-01T01:50:03.300Z,97694.37
2022-10-01T01:52:32.961Z,97695.70
2022-10-01T01:55:07.513Z,97692.64
2022-10-01T01:57:44.341Z,97690.92
2022-10-01T02:00:14.399Z,97691.09
2022-10-01T02:02:50.213Z,97691.78
2022-10-01T02:05:23.527Z,97689.91
2022-10-01T02:08:01.941Z,97689.64
2022-10-01T02:10:41.788Z,97690.02
2022-10-01T02:13:31.472Z,97691.98
2022-10-01T02:16:07.574Z,97695.36
2022-10-01T02:18:44.821Z,97692.42
2022-10-01T02:21:28.554Z,97693.95
2022-10-01T02:24:09.525Z,97693.13
2022-10-01T02:26:39.211Z,97696.39
2022-10-01T02:29:11.511Z,97699.45
2022-10-01T02:31:41.501Z,97698.22
2022-10-01T02:34:12.871Z,97695.42
2022-10-01T02:36:43.509Z,97698.59
2022-10-01T02:39:16.187Z,97702.60
2022-10-01T02:41:48.258Z,97704.26
2022-10-01T02:44:23.493Z,97709.23
2022-10-01T02:47:03.236Z,97706.67
2022-10-01T02:49:32.252Z,97708.81
2022-10-01T02:52:13.277Z,97707.05
2022-10-01T02:54:53.873Z,97705.35
2022-10-01T02:57:27.077Z,97705.03
2022-10-01T03:00:00.699Z,97699.99
2022-10-01T03:02:31.840Z,97694.31
2022-10-01T03:05:01.140Z,97689.60
2022-10-01T03:07:31.845Z,97689.33
2022-10-01T03:10:00.237Z,97689.59
2022-10-01T03:12:28.497Z,97691.63
2022-10-01T03:14:56.878Z,97688.46
2022-10-01T03:17:25.667Z,97687.66
2022-10-01T03:19:54.250Z,97692.38
2022-10-01T03:22:23.635Z,97691.52
2022-10-01T03:24:53.368Z,97688.52
2022-10-01T03:27:22.154Z,97690.13
2022-10-01T03:29:50.431Z,97695.42
2022-10-01T03:32:19.497Z,97697.56
2022-10-01T03:34:48.109Z,97696.55
2022-10-01T03:37:16.381Z,97691.69
2022-10-01T03:39:44.963Z,97690.45
2022-10-01T03:42:13.137Z,97694.58
2022-10-01T03:44:41.822Z,97696.94
2022-10-01T03:47:11.059Z,97689.75
2022-10-01T03:49:39.197Z,97691.56
2022-10-01T03:52:07.888Z,97689.85
2022-10-01T03:54:36.054Z,97685.95
2022-10-01T03:57:04.245Z,97686.70
2022-10-01T03:59:32.403Z,97692.48
2022-10-01T04:02:00.641Z,97697.85
2022-10-01T04:04:29.200Z,97699.55
2022-10-01T04:06:57.340Z,97693.73
2022-10-01T04:09:25.715Z,97693.98
2022-10-01T04:11:54.198Z,97695.80
2022-10-01T04:14:22.479Z,97698.73
2022-10-01T04:16:52.584Z,97691.30
2022-10-01T04:19:20.975Z,97695.23
2022-10-01T04:21:49.650Z,97697.79
2022-10-01T04:24:18.214Z,97700.98
2022-10-01T04:26:46.411Z,97703.13
2022-10-01T04:29:14.582Z,97703.34
2022-10-01T04:31:43.379Z,97705.75
2022-10-01T04:34:11.862Z,97704.46
2022-10-01T04:36:39.877Z,97707.30
2022-10-01T04:39:08.517Z,97708.90
2022-10-01T04:41:36.868Z,97711.63
2022-10-01T04:44:05.948Z,97710.83
2022-10-01T04:46:34.096Z,97709.48
2022-10-01T04:49:02.238Z,97710.91
2022-10-01T04:51:30.413Z,97719.54
2022-10-01T04:53:58.516Z,97720.40
2022-10-01T04:56:26.774Z,97719.59
2022-10-01T04:58:54.832Z,97722.16
2022-10-01T05:01:22.932Z,97729.13
2022-10-01T05:03:51.167Z,97735.45
2022-10-01T05:06:19.138Z,97740.25
2022-10-01T05:08:49.365Z,97744.59
2022-10-01T05:11:18.978Z,97750.80
2022-10-01T05:13:46.935Z,97755.14
2022-10-01T05:16:14.902Z,97751.61
2022-10-01T05:18:43.624Z,97748.60
2022-10-01T05:21:11.978Z,97750.16
2022-10-01T05:23:40.049Z,97749.14
2022-10-01T05:26:08.705Z,97748.48
2022-10-01T05:28:36.906Z,97750.10
2022-10-01T05:31:05.594Z,97752.98
2022-10-01T05:33:34.376Z,97755.50
2022-10-01T05:36:05.321Z,97756.36
2022-10-01T05:38:37.429Z,97756.85
2022-10-01T05:41:05.831Z,97755.24
2022-10-01T05:43:34.037Z,97757.91
2022-10-01T05:46:05.711Z,97756.31
2022-10-01T05:48:37.232Z,97752.94
2022-10-01T05:51:08.460Z,97753.31
2022-10-01T05:53:37.865Z,97756.10
2022-10-01T05:56:07.556Z,97750.59
2022-10-01T05:58:35.595Z,97746.41
2022-10-01T06:01:05.302Z,97744.65
2022-10-01T06:03:34.289Z,97745.51
2022-10-01T06:06:02.554Z,97743.63
2022-10-01T06:08:31.754Z,97741.59
2022-10-01T06:11:04.508Z,97742.28
2022-10-01T06:13:32.809Z,97742.70
2022-10-01T06:16:01.594Z,97743.52
2022-10-01T06:18:30.093Z,97740.42
2022-10-01T06:21:00.005Z,97742.20
2022-10-01T06:23:28.100Z,97745.83
2022-10-01T06:25:56.973Z,97747.01
2022-10-01T06:28:25.715Z,97735.50
2022-10-01T06:30:54.145Z,97732.02
2022-10-01T06:33:22.776Z,97737.96
2022-10-01T06:35:52.326Z,97735.55
2022-10-01T06:38:22.964Z,97731.66
2022-10-01T06:40:59.847Z,97729.88
2022-10-01T06:43:31.415Z,97727.42
2022-10-01T06:46:05.163Z,97726.73
2022-10-01T06:48:36.787Z,97717.80
2022-10-01T06:51:06.056Z,97713.30
2022-10-01T06:53:35.551Z,97707.09
2022-10-01T06:56:07.235Z,97704.79
2022-10-01T06:58:35.592Z,97704.42
2022-10-01T07:01:03.950Z,97703.09
2022-10-01T07:03:32.356Z,97700.83
2022-10-01T07:06:05.243Z,97695.90
2022-10-01T07:08:33.590Z,97689.00
2022-10-01T07:11:03.221Z,97686.64
2022-10-01T07:13:32.055Z,97681.07
2022-10-01T07:16:03.774Z,97683.70
2022-10-01T07:18:32.150Z,97685.03
2022-10-01T07:21:00.110Z,97682.37
2022-10-01T07:23:28.404Z,97681.02
2022-10-01T07:25:56.672Z,97685.67
2022-10-01T07:28:26.447Z,97687.80
2022-10-01T07:31:11.549Z,97693.16
2022-10-01T07:33:40.432Z,97694.92
2022-10-01T07:36:11.483Z,97689.96
2022-10-01T07:38:40.030Z,97690.02
2022-10-01T07:41:08.338Z,97686.32
2022-10-01T07:43:36.944Z,97684.87
2022-10-01T07:46:07.343Z,97678.33
2022-10-01T07:48:42.370Z,97672.71
2022-10-01T07:51:13.524Z,97668.39
2022-10-01T07:53:41.609Z,97667.10
2022-10-01T07:56:09.597Z,97666.52
2022-10-01T07:58:37.503Z,97665.65
2022-10-01T08:01:05.784Z,97664.85
2022-10-01T08:03:33.847Z,97668.05
2022-10-01T08:06:06.052Z,97663.88
2022-10-01T08:08:34.334Z,97658.46
2022-10-01T08:11:03.687Z,97658.73
2022-10-01T08:13:31.804Z,97654.95
2022-10-01T08:16:03.231Z,97652.00
2022-10-01T08:18:31.314Z,97647.61
2022-10-01T08:21:02.133Z,97641.03
2022-10-01T08:23:35.456Z,97631.48
2022-10-01T08:26:05.698Z,97626.83
2022-10-01T08:28:35.253Z,97626.41
2022-10-01T08:31:07.811Z,97616.92
2022-10-01T08:33:37.305Z,97621.36
2022-10-01T08:36:10.261Z,97621.00
2022-10-01T08:38:40.380Z,97617.89
2022-10-01T08:41:37.321Z,97614.67
2022-10-01T08:44:07.650Z,97612.52
2022-10-01T08:46:37.247Z,97609.69
2022-10-01T08:49:36.770Z,97606.10
2022-10-01T08:52:26.351Z,97602.89
2022-10-01T08:55:17.606Z,97602.63
2022-10-01T08:58:00.684Z,97601.85
2022-10-01T09:00:32.853Z,97592.02
2022-10-01T09:03:06.413Z,97585.05
2022-10-01T09:06:19.583Z,97585.80
2022-10-01T09:08:58.308Z,97584.84
2022-10-01T09:11:52.619Z,97578.25
2022-10-01T09:14:47.897Z,97575.69
2022-10-01T09:17:34.285Z,97575.52
2022-10-01T09:20:10.587Z,97575.35
2022-10-01T09:22:50.017Z,97574.23
2022-10-01T09:25:27.401Z,97574.02
2022-10-01T09:28:12.109Z,97570.52
2022-10-01T09:30:48.260Z,97566.83
2022-10-01T09:33:20.485Z,97564.63
2022-10-01T09:35:57.165Z,97567.38
2022-10-01T09:38:36.803Z,97563.90
2022-10-01T09:41:08.665Z,97561.48
2022-10-01T09:43:43.887Z,97556.55
2022-10-01T09:46:17.323Z,97552.73
2022-10-01T09:49:09.245Z,97553.86
2022-10-01T09:51:45.318Z,97546.95
2022-10-01T09:54:21.144Z,97548.52
2022-10-01T09:57:14.204Z,97549.85
2022-10-01T09:59:57.335Z,97550.00
2022-10-01T10:02:50.198Z,97552.89
2022-10-01T10:05:24.925Z,97551.66
2022-10-01T10:07:58.070Z,97550.75
2022-10-01T10:10:29.981Z,97545.66
2022-10-01T10:13:01.985Z,97542.86
2022-10-01T10:15:33.403Z,97544.70
2022-10-01T10:18:12.916Z,97547.31
2022-10-01T10:20:44.173Z,97550.19
2022-10-01T10:23:22.736Z,97546.14
2022-10-01T10:26:03.150Z,97537.30
2022-10-01T10:28:44.861Z,97530.39
2022-10-01T10:31:25.471Z,97525.14
2022-10-01T10:34:13.327Z,97522.54
2022-10-01T10:36:43.352Z,97516.82
2022-10-01T10:39:25.350Z,97512.05
2022-10-01T10:41:54.295Z,97509.47
2022-10-01T10:44:24.670Z,97507.66
2022-10-01T10:46:54.342Z,97503.70
2022-10-01T10:49:30.195Z,97500.64
2022-10-01T10:52:01.007Z,97501.93
2022-10-01T10:54:38.202Z,97503.01
2022-10-01T10:57:23.507Z,97498.12
2022-10-01T10:59:56.159Z,97486.60
2022-10-01T11:02:30.170Z,97486.38
2022-10-01T11:05:02.588Z,97478.98
2022-10-01T11:07:32.154Z,97456.96
2022-10-01T11:10:27.899Z,97444.59
2022-10-01T11:13:19.834Z,97432.91
2022-10-01T11:16:12.692Z,97429.33
2022-10-01T11:18:47.528Z,97426.02
2022-10-01T11:21:27.434Z,97423.59
2022-10-01T11:24:07.436Z,97423.58
2022-10-01T11:26:53.831Z,97426.26
2022-10-01T11:29:39.716Z,97420.25
2022-10-01T11:32:45.582Z,97414.20
2022-10-01T11:35:28.598Z,97413.64
2022-10-01T11:38:30.163Z,97412.85
2022-10-01T11:41:12.875Z,97412.32
2022-10-01T11:43:45.452Z,97405.46
2022-10-01T11:46:53.813Z,97401.80
2022-10-01T11:49:42.752Z,97399.07
2022-10-01T11:52:40.388Z,97404.38
2022-10-01T11:55:41.753Z,97400.13
2022-10-01T11:58:51.130Z,97391.49
2022-10-01T12:01:56.763Z,97383.83
2022-10-01T12:04:43.724Z,97382.09
2022-10-01T12:07:14.895Z,97374.75
2022-10-01T12:09:55.571Z,97367.69
2022-10-01T12:12:31.893Z,97353.54
2022-10-01T12:15:28.899Z,97339.10
2022-10-01T12:18:06.788Z,97329.50
2022-10-01T12:20:41.478Z,97326.88
2022-10-01T12:23:18.070Z,97319.85
2022-10-01T12:26:10.018Z,97313.03
2022-10-01T12:28:38.087Z,97305.09
2022-10-01T12:31:14.830Z,97298.66
2022-10-01T12:33:53.576Z,97296.62
2022-10-01T12:36:34.690Z,97295.80
2022-10-01T12:39:31.200Z,97297.30
2022-10-01T12:42:39.397Z,97300.84
2022-10-01T12:45:38.051Z,97300.71
2022-10-01T12:48:08.689Z,97303.80
2022-10-01T12:50:51.446Z,97297.15
2022-10-01T12:53:33.325Z,97293.30
2022-10-01T12:56:08.686Z,97295.36
2022-10-01T12:58:36.751Z,97282.77
2022-10-01T13:01:29.618Z,97279.00
2022-10-01T13:04:24.508Z,97278.40
2022-10-01T13:07:20.733Z,97273.52
2022-10-01T13:10:03.760Z,97272.48
2022-10-01T13:13:15.152Z,97271.17
2022-10-01T13:15:49.603Z,97269.58
2022-10-01T13:18:32.078Z,97268.19
2022-10-01T13:21:08.235Z,97266.14
2022-10-01T13:23:43.847Z,97261.48
2022-10-01T13:26:22.504Z,97256.61
2022-10-01T13:29:17.822Z,97254.89
2022-10-01T13:31:51.768Z,97251.99
2022-10-01T13:34:46.693Z,97244.75
2022-10-01T13:37:18.594Z,97233.87
2022-10-01T13:39:47.583Z,97225.86
2022-10-01T13:42:27.546Z,97229.40
2022-10-01T13:45:00.319Z,97230.15
2022-10-01T13:47:28.805Z,97233.33
2022-10-01T13:50:01.166Z,97234.08
2022-10-01T13:52:29.930Z,97236.45
2022-10-01T13:55:02.252Z,97232.38
2022-10-01T13:57:37.472Z,97234.67
2022-10-01T14:00:08.624Z,97231.20
2022-10-01T14:02:39.669Z,97224.92
2022-10-01T14:05:35.279Z,97220.74
2022-10-01T14:08:43.393Z,97214.52
2022-10-01T14:11:34.191Z,97213.77
2022-10-01T14:14:37.439Z,97212.98
2022-10-01T14:17:08.727Z,97211.98
2022-10-01T14:19:37.835Z,97209.44
2022-10-01T14:22:41.942Z,97209.57
2022-10-01T14:25:55.271Z,97211.17
2022-10-01T14:28:29.079Z,97205.97
2022-10-01T14:31:19.346Z,97204.03
2022-10-01T14:33:54.518Z,97202.04
2022-10-01T14:36:34.106Z,97195.55
2022-10-01T14:39:16.354Z,97187.35
2022-10-01T14:41:46.194Z,97185.89
2022-10-01T14:44:29.103Z,97179.67
2022-10-01T14:46:59.824Z,97177.74
2022-10-01T14:49:29.660Z,97170.23
2022-10-01T14:52:26.088Z,97168.19
2022-10-01T14:54:57.063Z,97159.39
2022-10-01T14:57:40.147Z,97153.00
2022-10-01T15:00:11.616Z,97147.96
2022-10-01T15:03:03.598Z,97141.05
2022-10-01T15:05:34.371Z,97129.74
2022-10-01T15:08:13.621Z,97119.52
2022-10-01T15:10:46.761Z,97114.98
2022-10-01T15:13:19.575Z,97111.49
2022-10-01T15:15:47.740Z,97105.97
2022-10-01T15:18:17.517Z,97100.64
2022-10-01T15:20:53.118Z,97095.92
2022-10-01T15:23:23.426Z,97095.29
2022-10-01T15:25:53.651Z,97089.02
2022-10-01T15:28:33.800Z,97075.45
2022-10-01T15:31:05.550Z,97065.39
2022-10-01T15:33:36.571Z,97053.02
2022-10-01T15:36:07.692Z,97054.54
2022-10-01T15:38:36.853Z,97056.14
2022-10-01T15:41:30.524Z,97059.04
2022-10-01T15:44:02.168Z,97060.54
2022-10-01T15:46:35.143Z,97060.23
2022-10-01T15:49:06.200Z,97049.98
2022-10-01T15:51:34.736Z,97049.73
2022-10-01T15:54:08.955Z,97046.96
2022-10-01T15:56:37.556Z,97046.19
2022-10-01T15:59:18.963Z,97041.20
2022-10-01T16:01:47.144Z,97039.30
2022-10-01T16:04:15.417Z,97038.38
2022-10-01T16:06:47.388Z,97043.91
2022-10-01T16:09:22.437Z,97045.98
2022-10-01T16:12:02.570Z,97045.89
2022-10-01T16:14:33.579Z,97056.23
2022-10-01T16:17:19.906Z,97059.88
2022-10-01T16:19:53.294Z,97059.65
2022-10-01T16:22:35.480Z,97065.86
2022-10-01T16:25:03.575Z,97072.73
2022-10-01T16:27:46.892Z,97075.82
2022-10-01T16:30:27.789Z,97080.20
2022-10-01T16:33:04.881Z,97086.20
2022-10-01T16:35:36.045Z,97098.91
2022-10-01T16:38:08.449Z,97108.19
2022-10-01T16:40:43.111Z,97110.07
2022-10-01T16:43:18.879Z,97114.04
2022-10-01T16:45:47.225Z,97117.31
2022-10-01T16:48:19.653Z,97114.31
2022-10-01T16:50:48.068Z,97117.84
2022-10-01T16:53:18.406Z,97118.83
2022-10-01T16:55:47.414Z,97120.77
2022-10-01T16:58:16.201Z,97120.83
2022-10-01T17:00:44.241Z,97117.82
2022-10-01T17:03:19.863Z,97122.48
2022-10-01T17:05:49.013Z,97123.17
2022-10-01T17:08:17.291Z,97124.62
2022-10-01T17:10:53.453Z,97126.08
2022-10-01T17:13:21.357Z,97131.00
2022-10-01T17:15:50.862Z,97138.35
2022-10-01T17:18:19.196Z,97140.23
2022-10-01T17:20:47.509Z,97144.86
2022-10-01T17:23:18.264Z,97145.40
2022-10-01T17:25:46.801Z,97155.98
2022-10-01T17:28:20.190Z,97162.63
2022-10-01T17:30:49.806Z,97167.29
2022-10-01T17:33:19.734Z,97170.60
2022-10-01T17:35:54.855Z,97172.52
2022-10-01T17:38:23.588Z,97172.28
2022-10-01T17:40:56.354Z,97176.35
2022-10-01T17:43:25.391Z,97175.48
2022-10-01T17:45:59.191Z,97178.42
2022-10-01T17:48:28.293Z,97180.15
2022-10-01T17:51:16.052Z,97183.63
2022-10-01T17:53:44.329Z,97192.25
2022-10-01T17:56:18.018Z,97195.35
2022-10-01T17:58:46.823Z,97198.45
2022-10-01T18:01:20.064Z,97199.84
2022-10-01T18:03:54.553Z,97197.10
2022-10-01T18:06:24.759Z,97194.90
2022-10-01T18:08:56.336Z,97198.66
2022-10-01T18:11:27.653Z,97207.98
2022-10-01T18:13:55.932Z,97207.39
2022-10-01T18:16:25.240Z,97208.95
2022-10-01T18:21:47.052Z,97204.89
2022-10-01T18:24:16.282Z,97196.53
2022-10-01T18:26:45.822Z,97200.23
2022-10-01T18:29:21.922Z,97203.66
2022-10-01T18:31:59.538Z,97194.59
2022-10-01T18:34:38.768Z,97190.10
2022-10-01T18:37:08.106Z,97189.77
2022-10-01T18:39:50.061Z,97178.20
2022-10-01T18:42:34.840Z,97166.14
2022-10-01T18:45:07.720Z,97160.83
2022-10-01T18:47:48.250Z,97148.92
2022-10-01T18:50:36.878Z,97145.20
2022-10-01T18:53:21.346Z,97138.65
2022-10-01T18:55:49.794Z,97130.02
2022-10-01T18:58:39.390Z,97114.30
2022-10-01T19:01:30.016Z,97097.05
2022-10-01T19:04:26.495Z,97082.58
2022-10-01T19:07:06.507Z,97067.98
2022-10-01T19:09:48.917Z,97061.67
2022-10-01T19:12:22.966Z,97051.66
2022-10-01T19:14:57.952Z,97048.23
2022-10-01T19:17:44.915Z,97044.84
2022-10-01T19:20:40.739Z,97050.52
2022-10-01T19:23:20.684Z,97049.98
2022-10-01T19:26:10.206Z,97048.00
2022-10-01T19:29:16.336Z,97043.45
2022-10-01T19:32:02.829Z,97035.27
2022-10-01T19:34:39.809Z,97024.08
2022-10-01T19:37:15.445Z,97023.59
2022-10-01T19:39:46.614Z,97030.71
2022-10-01T19:42:27.477Z,97026.86
2022-10-01T19:45:24.571Z,97022.79
2022-10-01T19:48:10.925Z,97008.16
2022-10-01T19:50:44.742Z,96998.50
2022-10-01T19:53:26.517Z,97002.84
2022-10-01T19:55:56.316Z,97009.88
2022-10-01T19:58:24.854Z,97016.63
2022-10-01T20:00:57.367Z,97026.48
2022-10-01T20:03:47.170Z,97022.41
2022-10-01T20:06:25.518Z,97025.79
2022-10-01T20:09:01.250Z,97030.58
2022-10-01T20:11:38.698Z,97035.40
2022-10-01T20:14:48.482Z,97037.23
2022-10-01T20:17:38.912Z,97041.80
2022-10-01T20:20:23.466Z,97046.78
2022-10-01T20:23:00.468Z,97046.73
2022-10-01T20:25:43.744Z,97047.27
2022-10-01T20:28:26.474Z,97049.23
2022-10-01T20:31:14.559Z,97043.30
2022-10-01T20:33:56.507Z,97042.40
2022-10-01T20:36:43.346Z,97052.42
2022-10-01T20:39:25.823Z,97062.11
2022-10-01T20:41:55.012Z,97073.48
2022-10-01T20:44:31.698Z,97073.11
2022-10-01T20:47:11.423Z,97070.27
2022-10-01T20:49:46.554Z,97072.41
2022-10-01T20:52:17.531Z,97071.98
2022-10-01T20:54:53.671Z,97065.33
2022-10-01T20:57:31.584Z,97069.39
2022-10-01T21:00:13.991Z,97061.42
2022-10-01T21:02:47.418Z,97063.33
2022-10-01T21:05:23.758Z,97066.61
2022-10-01T21:08:32.782Z,97063.39
2022-10-01T21:11:07.716Z,97060.60
2022-10-01T21:13:58.010Z,97062.46
2022-10-01T21:16:36.115Z,97066.20
2022-10-01T21:19:27.640Z,97062.62
2022-10-01T21:22:07.682Z,97053.83
2022-10-01T21:24:41.702Z,97046.37
2022-10-01T21:27:34.987Z,97043.00
2022-10-01T21:30:11.333Z,97039.74
2022-10-01T21:33:06.750Z,97037.73
2022-10-01T21:35:40.746Z,97047.54
2022-10-01T21:38:18.868Z,97054.98
2022-10-01T21:40:52.257Z,97053.55
2022-10-01T21:43:31.901Z,97051.52
2022-10-01T21:46:23.515Z,97039.23
2022-10-01T21:48:54.350Z,97045.73
2022-10-01T21:51:51.301Z,97058.58
2022-10-01T21:55:12.629Z,97056.91
2022-10-01T21:57:53.435Z,97043.83
2022-10-01T22:00:28.930Z,97040.68
2022-10-01T22:03:18.313Z,97035.59
2022-10-01T22:05:50.818Z,97031.60
2022-10-01T22:08:55.923Z,97024.63
2022-10-01T22:11:29.755Z,97027.41
2022-10-01T22:14:04.949Z,97039.31
2022-10-01T22:16:40.675Z,97037.45
2022-10-01T22:19:16.684Z,97026.23
2022-10-01T22:21:48.292Z,97016.48
2022-10-01T22:24:24.909Z,97015.15
2022-10-01T22:26:57.996Z,97019.12
2022-10-01T22:29:30.371Z,97024.98
2022-10-01T22:32:03.644Z,97018.30
2022-10-01T22:34:37.778Z,97011.86
2022-10-01T22:37:13.836Z,97008.00
2022-10-01T22:39:55.828Z,97012.19
2022-10-01T22:42:36.290Z,97011.38
2022-10-01T22:45:16.512Z,97006.83
2022-10-01T22:47:53.127Z,97003.30
2022-10-01T22:50:40.753Z,97002.35
2022-10-01T22:53:35.245Z,97007.77
2022-10-01T22:56:03.406Z,97005.84
2022-10-01T22:58:50.338Z,97006.92
2022-10-01T23:01:21.253Z,97014.27
2022-10-01T23:04:04.602Z,97019.52
2022-10-01T23:06:41.585Z,97023.64
2022-10-01T23:09:20.688Z,97019.70
2022-10-01T23:12:04.968Z,97016.39
2022-10-01T23:15:14.330Z,97015.97
2022-10-01T23:17:42.170Z,97010.56
2022-10-01T23:20:22.019Z,97000.00
2022-10-01T23:22:55.826Z,96991.15
2022-10-01T23:25:52.562Z,96998.02
2022-10-01T23:28:45.524Z,97004.02
2022-10-01T23:31:13.302Z,97008.28
2022-10-01T23:33:53.234Z,97006.73
2022-10-01T23:37:01.655Z,97005.55
2022-10-01T23:39:45.694Z,97009.52
2022-10-01T23:42:28.329Z,97013.87
2022-10-01T23:45:09.177Z,97021.10
2022-10-01T23:47:44.267Z,97025.02
2022-10-01T23:50:21.218Z,97029.78
2022-10-01T23:53:03.499Z,97033.77
2022-10-01T23:56:00.196Z,97039.11
2022-10-01T23:58:32.828Z,97049.96
